createdAt,value
2019-01-05T00:00:45.183Z,862.16
2019-01-05T00:01:44.979Z,862.18
2019-01-05T00:02:45.043Z,862.17
2019-01-05T00:03:44.915Z,862.23
2019-01-05T00:04:44.946Z,862.20
2019-01-05T00:05:44.957Z,862.20
2019-01-05T00:06:44.923Z,862.17
2019-01-05T00:07:44.870Z,862.23
2019-01-05T00:08:44.865Z,862.27
2019-01-05T00:09:44.891Z,862.24
2019-01-05T00:10:44.851Z,862.22
2019-01-05T00:11:44.854Z,862.23
2019-01-05T00:12:44.875Z,862.27
2019-01-05T00:13:44.831Z,862.25
2019-01-05T00:14:45.480Z,862.27
2019-01-05T00:15:44.859Z,862.26
2019-01-05T00:16:44.799Z,862.31
2019-01-05T00:17:44.787Z,862.31
2019-01-05T00:18:44.853Z,862.32
2019-01-05T00:19:44.791Z,862.32
2019-01-05T00:20:44.781Z,862.29
2019-01-05T00:21:44.764Z,862.27
2019-01-05T00:22:44.745Z,862.27
2019-01-05T00:23:44.722Z,862.26
2019-01-05T00:24:44.753Z,862.25
2019-01-05T00:25:44.719Z,862.24
2019-01-05T00:26:44.709Z,862.30
2019-01-05T00:27:44.668Z,862.34
2019-01-05T00:28:44.706Z,862.35
2019-01-05T00:29:44.685Z,862.38
2019-01-05T00:30:44.712Z,862.38
2019-01-05T00:31:44.666Z,862.39
2019-01-05T00:32:44.754Z,862.34
2019-01-05T00:33:44.614Z,862.34
2019-01-05T00:34:44.806Z,862.40
2019-01-05T00:35:44.627Z,862.44
2019-01-05T00:36:44.627Z,862.42
2019-01-05T00:37:44.633Z,862.46
2019-01-05T00:38:44.643Z,862.47
2019-01-05T00:39:44.568Z,862.44
2019-01-05T00:40:44.550Z,862.41
2019-01-05T00:41:44.538Z,862.42
2019-01-05T00:42:44.514Z,862.42
2019-01-05T00:43:44.552Z,862.45
2019-01-05T00:44:44.578Z,862.51
2019-01-05T00:45:44.493Z,862.52
2019-01-05T00:46:44.466Z,862.50
2019-01-05T00:47:44.533Z,862.48
2019-01-05T00:48:44.491Z,862.49
2019-01-05T00:49:44.454Z,862.47
2019-01-05T00:50:44.447Z,862.50
2019-01-05T00:51:44.410Z,862.46
2019-01-05T00:52:44.415Z,862.50
2019-01-05T00:53:44.518Z,862.49
2019-01-05T00:54:44.382Z,862.49
2019-01-05T00:55:44.398Z,862.52
2019-01-05T00:56:44.369Z,862.55
2019-01-05T00:57:44.357Z,862.56
2019-01-05T00:58:44.389Z,862.57
2019-01-05T00:59:44.459Z,862.59
2019-01-05T01:00:44.355Z,862.60
2019-01-05T01:01:44.365Z,862.63
2019-01-05T01:02:44.323Z,862.64
2019-01-05T01:03:44.284Z,862.61
2019-01-05T01:04:44.289Z,862.68
2019-01-05T01:05:44.335Z,862.67
2019-01-05T01:06:44.270Z,862.74
2019-01-05T01:07:44.256Z,862.79
2019-01-05T01:08:44.253Z,862.80
2019-01-05T01:09:44.270Z,862.86
2019-01-05T01:10:44.220Z,862.88
2019-01-05T01:11:44.314Z,862.89
2019-01-05T01:12:44.219Z,862.87
2019-01-05T01:13:44.226Z,862.87
2019-01-05T01:14:44.204Z,862.91
2019-01-05T01:15:44.186Z,862.87
2019-01-05T01:16:44.245Z,862.85
2019-01-05T01:17:44.168Z,862.87
2019-01-05T01:18:44.164Z,862.91
2019-01-05T01:19:44.274Z,862.87
2019-01-05T01:20:44.198Z,862.93
2019-01-05T01:21:44.160Z,862.90
2019-01-05T01:22:44.127Z,862.90
2019-01-05T01:23:44.154Z,862.86
2019-01-05T01:24:44.131Z,862.84
2019-01-05T01:25:44.117Z,862.84
2019-01-05T01:26:44.085Z,862.86
2019-01-05T01:27:44.035Z,862.80
2019-01-05T01:28:44.068Z,862.83
2019-01-05T01:29:44.043Z,862.83
2019-01-05T01:30:44.029Z,862.79
2019-01-05T01:31:44.022Z,862.78
2019-01-05T01:32:44.061Z,862.77
2019-01-05T01:33:44.027Z,862.73
2019-01-05T01:34:43.973Z,862.72
2019-01-05T01:35:43.985Z,862.72
2019-01-05T01:36:43.990Z,862.74
2019-01-05T01:37:43.973Z,862.71
2019-01-05T01:38:43.954Z,862.70
2019-01-05T01:39:43.936Z,862.70
2019-01-05T01:40:43.927Z,862.64
2019-01-05T01:41:43.904Z,862.69
2019-01-05T01:42:43.988Z,862.70
2019-01-05T01:43:43.875Z,862.68
2019-01-05T01:44:43.890Z,862.66
2019-01-05T01:45:43.834Z,862.70
2019-01-05T01:46:43.891Z,862.65
2019-01-05T01:47:43.815Z,862.64
2019-01-05T01:48:43.833Z,862.63
2019-01-05T01:49:43.823Z,862.60
2019-01-05T01:50:43.839Z,862.57
2019-01-05T01:51:43.843Z,862.55
2019-01-05T01:52:43.825Z,862.49
2019-01-05T01:53:43.754Z,862.46
2019-01-05T01:54:43.761Z,862.50
2019-01-05T01:55:43.765Z,862.46
2019-01-05T01:56:43.859Z,862.52
2019-01-05T01:57:43.739Z,862.49
2019-01-05T01:58:43.719Z,862.51
2019-01-05T01:59:43.706Z,862.44
2019-01-05T02:00:43.715Z,862.43
2019-01-05T02:01:43.695Z,862.38
2019-01-05T02:02:43.751Z,862.42
2019-01-05T02:03:43.763Z,862.38
2019-01-05T02:04:43.660Z,862.33
2019-01-05T02:05:43.637Z,862.34
2019-01-05T02:06:43.628Z,862.36
2019-01-05T02:07:43.658Z,862.34
2019-01-05T02:08:43.615Z,862.31
2019-01-05T02:09:43.637Z,862.33
2019-01-05T02:10:43.587Z,862.38
2019-01-05T02:11:43.595Z,862.33
2019-01-05T02:12:43.570Z,862.33
2019-01-05T02:13:43.543Z,862.30
2019-01-05T02:14:43.611Z,862.34
2019-01-05T02:15:43.591Z,862.28
2019-01-05T02:16:43.549Z,862.36
2019-01-05T02:17:43.550Z,862.28
2019-01-05T02:18:43.511Z,862.28
2019-01-05T02:19:43.507Z,862.22
2019-01-05T02:20:43.480Z,862.20
2019-01-05T02:21:43.514Z,862.23
2019-01-05T02:22:43.449Z,862.26
2019-01-05T02:23:43.509Z,862.25
2019-01-05T02:24:43.457Z,862.27
2019-01-05T02:25:43.443Z,862.21
2019-01-05T02:26:43.490Z,862.20
2019-01-05T02:27:43.449Z,862.20
2019-01-05T02:28:43.436Z,862.23
2019-01-05T02:29:43.412Z,862.25
2019-01-05T02:30:43.412Z,862.24
2019-01-05T02:31:43.359Z,862.22
2019-01-05T02:32:43.368Z,862.27
2019-01-05T02:33:43.426Z,862.28
2019-01-05T02:34:43.325Z,862.33
2019-01-05T02:35:43.335Z,862.36
2019-01-05T02:36:43.346Z,862.36
2019-01-05T02:37:43.323Z,862.29
2019-01-05T02:38:43.356Z,862.29
2019-01-05T02:39:43.301Z,862.30
2019-01-05T02:40:43.260Z,862.29
2019-01-05T02:41:43.276Z,862.30
2019-01-05T02:42:43.242Z,862.29
2019-01-05T02:43:43.227Z,862.26
2019-01-05T02:44:44.948Z,862.21
2019-01-05T02:45:43.945Z,862.23
2019-01-05T02:46:43.235Z,862.21
2019-01-05T02:47:43.180Z,862.22
2019-01-05T02:48:43.172Z,862.17
2019-01-05T02:49:43.167Z,862.14
2019-01-05T02:50:43.211Z,862.17
2019-01-05T02:51:43.167Z,862.14
2019-01-05T02:52:43.158Z,862.16
2019-01-05T02:53:43.122Z,862.16
2019-01-05T02:54:43.103Z,862.13
2019-01-05T02:55:43.092Z,862.11
2019-01-05T02:56:43.144Z,862.11
2019-01-05T02:57:43.078Z,862.08
2019-01-05T02:58:43.071Z,862.06
2019-01-05T02:59:43.053Z,862.06
2019-01-05T03:00:43.088Z,862.06
2019-01-05T03:01:43.057Z,862.08
2019-01-05T03:02:43.144Z,862.01
2019-01-05T03:03:43.065Z,862.02
2019-01-05T03:04:42.996Z,862.00
2019-01-05T03:05:43.884Z,861.97
2019-01-05T03:06:42.983Z,861.93
2019-01-05T03:07:43.009Z,861.93
2019-01-05T03:08:43.004Z,861.96
2019-01-05T03:09:42.959Z,861.94
2019-01-05T03:10:42.973Z,861.94
2019-01-05T03:11:42.977Z,861.90
2019-01-05T03:12:42.983Z,861.95
2019-01-05T03:13:42.929Z,861.93
2019-01-05T03:14:43.011Z,861.92
2019-01-05T03:15:42.922Z,861.92
2019-01-05T03:16:42.869Z,861.88
2019-01-05T03:17:42.894Z,861.87
2019-01-05T03:18:42.902Z,861.89
2019-01-05T03:19:42.894Z,861.87
2019-01-05T03:20:42.962Z,861.81
2019-01-05T03:21:42.840Z,861.82
2019-01-05T03:22:42.848Z,861.78
2019-01-05T03:23:42.819Z,861.83
2019-01-05T03:24:42.828Z,861.80
2019-01-05T03:25:42.832Z,861.78
2019-01-05T03:26:42.910Z,861.79
2019-01-05T03:27:42.799Z,861.77
2019-01-05T03:28:42.768Z,861.78
2019-01-05T03:29:42.763Z,861.79
2019-01-05T03:30:42.727Z,861.75
2019-01-05T03:31:42.734Z,861.78
2019-01-05T03:32:42.786Z,861.75
2019-01-05T03:33:42.718Z,861.71
2019-01-05T03:34:42.684Z,861.72
2019-01-05T03:35:42.721Z,861.72
2019-01-05T03:36:43.376Z,861.72
2019-01-05T03:37:42.697Z,861.75
2019-01-05T03:38:42.763Z,861.77
2019-01-05T03:39:42.658Z,861.75
2019-01-05T03:40:42.658Z,861.74
2019-01-05T03:41:42.729Z,861.74
2019-01-05T03:42:42.598Z,861.76
2019-01-05T03:43:42.646Z,861.75
2019-01-05T03:44:42.582Z,861.76
2019-01-05T03:45:42.606Z,861.73
2019-01-05T03:46:42.575Z,861.75
2019-01-05T03:47:42.615Z,861.75
2019-01-05T03:48:42.648Z,861.73
2019-01-05T03:49:42.568Z,861.71
2019-01-05T03:50:42.521Z,861.72
2019-01-05T03:51:42.539Z,861.79
2019-01-05T03:52:42.514Z,861.74
2019-01-05T03:53:42.492Z,861.68
2019-01-05T03:54:42.561Z,861.60
2019-01-05T03:55:42.465Z,861.61
2019-01-05T03:56:42.514Z,861.62
2019-01-05T03:57:42.452Z,861.66
2019-01-05T03:58:42.564Z,861.64
2019-01-05T03:59:42.459Z,861.62
2019-01-05T04:00:42.426Z,861.61
2019-01-05T04:01:43.365Z,861.66
2019-01-05T04:02:42.439Z,861.55
2019-01-05T04:03:42.476Z,861.60
2019-01-05T04:04:42.429Z,861.63
2019-01-05T04:05:42.366Z,861.66
2019-01-05T04:06:42.383Z,861.66
2019-01-05T04:07:42.395Z,861.64
2019-01-05T04:08:42.368Z,861.65
2019-01-05T04:09:42.403Z,861.63
2019-01-05T04:10:42.365Z,861.58
2019-01-05T04:11:42.292Z,861.65
2019-01-05T04:12:42.306Z,861.61
2019-01-05T04:13:42.318Z,861.60
2019-01-05T04:14:42.293Z,861.60
2019-01-05T04:15:42.333Z,861.59
2019-01-05T04:16:42.313Z,861.57
2019-01-05T04:17:42.306Z,861.55
2019-01-05T04:18:42.266Z,861.53
2019-01-05T04:19:42.214Z,861.55
2019-01-05T04:20:42.217Z,861.53
2019-01-05T04:21:42.259Z,861.51
2019-01-05T04:22:42.231Z,861.48
2019-01-05T04:23:42.191Z,861.47
2019-01-05T04:24:42.171Z,861.47
2019-01-05T04:25:42.189Z,861.42
2019-01-05T04:26:42.216Z,861.43
2019-01-05T04:27:42.139Z,861.40
2019-01-05T04:28:42.236Z,861.39
2019-01-05T04:29:42.119Z,861.43
2019-01-05T04:30:42.122Z,861.39
2019-01-05T04:31:42.135Z,861.39
2019-01-05T04:32:42.081Z,861.35
2019-01-05T04:33:42.116Z,861.32
2019-01-05T04:34:42.145Z,861.32
2019-01-05T04:35:42.078Z,861.36
2019-01-05T04:36:42.093Z,861.31
2019-01-05T04:37:42.029Z,861.32
2019-01-05T04:38:42.065Z,861.29
2019-01-05T04:39:42.043Z,861.29
2019-01-05T04:40:42.129Z,861.26
2019-01-05T04:41:42.016Z,861.26
2019-01-05T04:42:41.986Z,861.25
2019-01-05T04:43:41.975Z,861.22
2019-01-05T04:44:41.984Z,861.17
2019-01-05T04:45:41.977Z,861.18
2019-01-05T04:46:42.064Z,861.19
2019-01-05T04:47:41.934Z,861.19
2019-01-05T04:48:41.930Z,861.17
2019-01-05T04:49:41.922Z,861.13
2019-01-05T04:50:41.912Z,861.17
2019-01-05T04:51:41.909Z,861.14
2019-01-05T04:52:41.990Z,861.08
2019-01-05T04:53:41.859Z,861.12
2019-01-05T04:54:41.882Z,861.10
2019-01-05T04:55:41.869Z,861.06
2019-01-05T04:56:41.850Z,861.10
2019-01-05T04:57:41.852Z,861.09
2019-01-05T04:58:41.893Z,861.08
2019-01-05T04:59:41.854Z,861.05
2019-01-05T05:00:41.843Z,861.05
2019-01-05T05:01:41.814Z,861.05
2019-01-05T05:02:41.766Z,860.99
2019-01-05T05:03:41.857Z,860.98
2019-01-05T05:04:41.778Z,861.04
2019-01-05T05:05:41.787Z,861.03
2019-01-05T05:06:41.770Z,860.97
2019-01-05T05:07:41.756Z,860.96
2019-01-05T05:08:41.812Z,860.96
2019-01-05T05:09:41.785Z,861.02
2019-01-05T05:10:41.733Z,860.93
2019-01-05T05:11:41.722Z,860.98
2019-01-05T05:12:41.711Z,860.91
2019-01-05T05:13:41.662Z,860.90
2019-01-05T05:14:41.682Z,860.90
2019-01-05T05:15:41.676Z,860.82
2019-01-05T05:16:41.640Z,860.81
2019-01-05T05:17:41.616Z,860.78
2019-01-05T05:18:41.597Z,860.68
2019-01-05T05:19:41.617Z,860.67
2019-01-05T05:20:41.707Z,860.64
2019-01-05T05:21:41.571Z,860.62
2019-01-05T05:22:41.588Z,860.63
2019-01-05T05:23:41.579Z,860.58
2019-01-05T05:24:41.592Z,860.56
2019-01-05T05:25:41.538Z,860.62
2019-01-05T05:26:41.599Z,860.57
2019-01-05T05:27:41.555Z,860.56
2019-01-05T05:28:41.511Z,860.58
2019-01-05T05:29:41.553Z,860.59
2019-01-05T05:30:41.581Z,860.60
2019-01-05T05:31:41.486Z,860.65
2019-01-05T05:32:41.471Z,860.65
2019-01-05T05:33:41.493Z,860.68
2019-01-05T05:34:41.495Z,860.68
2019-01-05T05:35:41.455Z,860.64
2019-01-05T05:36:41.418Z,860.70
2019-01-05T05:37:41.516Z,860.64
2019-01-05T05:38:41.430Z,860.64
2019-01-05T05:39:41.403Z,860.66
2019-01-05T05:40:41.412Z,860.70
2019-01-05T05:41:41.387Z,860.66
2019-01-05T05:42:41.378Z,860.66
2019-01-05T05:43:41.467Z,860.68
2019-01-05T05:44:41.364Z,860.71
2019-01-05T05:45:41.321Z,860.70
2019-01-05T05:46:41.312Z,860.67
2019-01-05T05:47:41.343Z,860.71
2019-01-05T05:48:41.331Z,860.67
2019-01-05T05:49:41.290Z,860.61
2019-01-05T05:50:41.385Z,860.58
2019-01-05T05:51:41.293Z,860.55
2019-01-05T05:52:41.301Z,860.53
2019-01-05T05:53:41.244Z,860.51
2019-01-05T05:54:41.255Z,860.47
2019-01-05T05:55:41.272Z,860.38
2019-01-05T05:56:41.246Z,860.38
2019-01-05T05:57:41.201Z,860.36
2019-01-05T05:58:41.203Z,860.33
2019-01-05T05:59:41.209Z,860.35
2019-01-05T06:00:41.174Z,860.32
2019-01-05T06:01:41.209Z,860.26
2019-01-05T06:02:41.238Z,860.28
2019-01-05T06:03:41.166Z,860.25
2019-01-05T06:04:41.177Z,860.24
2019-01-05T06:05:41.150Z,860.24
2019-01-05T06:06:41.111Z,860.35
2019-01-05T06:07:41.100Z,860.38
2019-01-05T06:08:41.134Z,860.42
2019-01-05T06:09:41.086Z,860.41
2019-01-05T06:10:41.067Z,860.40
2019-01-05T06:11:41.115Z,860.39
2019-01-05T06:12:41.076Z,860.39
2019-01-05T06:13:41.064Z,860.42
2019-01-05T06:14:41.052Z,860.42
2019-01-05T06:15:41.022Z,860.49
2019-01-05T06:16:41.049Z,860.50
2019-01-05T06:17:41.028Z,860.51
2019-01-05T06:18:40.995Z,860.54
2019-01-05T06:19:40.995Z,860.58
2019-01-05T06:20:41.062Z,860.61
2019-01-05T06:21:41.001Z,860.56
2019-01-05T06:22:40.990Z,860.64
2019-01-05T06:23:40.929Z,860.60
2019-01-05T06:24:40.965Z,860.60
2019-01-05T06:25:40.921Z,860.59
2019-01-05T06:26:40.894Z,860.60
2019-01-05T06:27:40.976Z,860.55
2019-01-05T06:28:40.911Z,860.49
2019-01-05T06:29:40.894Z,860.43
2019-01-05T06:30:40.899Z,860.46
2019-01-05T06:31:40.868Z,860.48
2019-01-05T06:32:40.871Z,860.46
2019-01-05T06:33:40.891Z,860.46
2019-01-05T06:34:40.805Z,860.50
2019-01-05T06:35:40.795Z,860.50
2019-01-05T06:36:40.787Z,860.47
2019-01-05T06:37:40.821Z,860.38
2019-01-05T06:38:40.769Z,860.40
2019-01-05T06:39:40.757Z,860.40
2019-01-05T06:40:40.745Z,860.37
2019-01-05T06:41:40.737Z,860.37
2019-01-05T06:42:40.721Z,860.39
2019-01-05T06:43:40.762Z,860.39
2019-01-05T06:44:40.695Z,860.38
2019-01-05T06:45:43.258Z,860.42
2019-01-05T06:46:40.680Z,860.51
2019-01-05T06:47:40.675Z,860.47
2019-01-05T06:48:40.661Z,860.52
2019-01-05T06:49:40.683Z,860.50
2019-01-05T06:50:40.633Z,860.43
2019-01-05T06:51:40.623Z,860.53
2019-01-05T06:52:40.610Z,860.49
2019-01-05T06:53:40.624Z,860.47
2019-01-05T06:54:40.592Z,860.46
2019-01-05T06:55:40.614Z,860.39
2019-01-05T06:56:40.570Z,860.41
2019-01-05T06:57:40.559Z,860.40
2019-01-05T06:58:40.558Z,860.44
2019-01-05T06:59:40.538Z,860.39
2019-01-05T07:00:40.570Z,860.40
2019-01-05T07:01:40.520Z,860.40
2019-01-05T07:02:40.527Z,860.40
2019-01-05T07:03:40.512Z,860.44
2019-01-05T07:04:40.486Z,860.49
2019-01-05T07:05:40.476Z,860.42
2019-01-05T07:06:40.500Z,860.50
2019-01-05T07:07:40.457Z,860.49
2019-01-05T07:08:40.441Z,860.49
2019-01-05T07:09:40.441Z,860.52
2019-01-05T07:10:40.428Z,860.50
2019-01-05T07:11:40.413Z,860.51
2019-01-05T07:12:40.456Z,860.53
2019-01-05T07:13:40.398Z,860.56
2019-01-05T07:14:40.384Z,860.50
2019-01-05T07:15:40.381Z,860.49
2019-01-05T07:16:40.405Z,860.54
2019-01-05T07:17:40.382Z,860.56
2019-01-05T07:18:40.390Z,860.53
2019-01-05T07:19:40.334Z,860.56
2019-01-05T07:20:40.333Z,860.49
2019-01-05T07:21:40.312Z,860.53
2019-01-05T07:22:40.313Z,860.57
2019-01-05T07:23:40.290Z,860.54
2019-01-05T07:24:40.311Z,860.55
2019-01-05T07:25:40.286Z,860.54
2019-01-05T07:26:40.253Z,860.52
2019-01-05T07:27:40.279Z,860.53
2019-01-05T07:28:40.239Z,860.45
2019-01-05T07:29:40.227Z,860.47
2019-01-05T07:30:40.222Z,860.42
2019-01-05T07:31:40.207Z,860.46
2019-01-05T07:32:40.232Z,860.51
2019-01-05T07:33:40.184Z,860.53
2019-01-05T07:34:40.174Z,860.52
2019-01-05T07:35:40.167Z,860.52
2019-01-05T07:36:40.174Z,860.51
2019-01-05T07:37:40.143Z,860.57
2019-01-05T07:38:40.173Z,860.55
2019-01-05T07:39:40.121Z,860.57
2019-01-05T07:40:40.121Z,860.58
2019-01-05T07:41:40.104Z,860.57
2019-01-05T07:42:40.103Z,860.60
2019-01-05T07:43:40.104Z,860.57
2019-01-05T07:44:40.112Z,860.59
2019-01-05T07:45:40.059Z,860.68
2019-01-05T07:46:40.048Z,860.64
2019-01-05T07:47:40.040Z,860.58
2019-01-05T07:48:40.028Z,860.60
2019-01-05T07:49:40.042Z,860.60
2019-01-05T07:50:40.042Z,860.63
2019-01-05T07:51:39.997Z,860.64
2019-01-05T07:52:39.987Z,860.69
2019-01-05T07:53:39.986Z,860.63
2019-01-05T07:54:39.983Z,860.65
2019-01-05T07:55:40.009Z,860.75
2019-01-05T07:56:39.944Z,860.72
2019-01-05T07:57:39.933Z,860.71
2019-01-05T07:58:39.923Z,860.66
2019-01-05T07:59:39.916Z,860.68
2019-01-05T08:00:39.903Z,860.74
2019-01-05T08:01:39.951Z,860.75
2019-01-05T08:02:39.885Z,860.76
2019-01-05T08:03:39.881Z,860.77
2019-01-05T08:04:39.863Z,860.75
2019-01-05T08:05:39.854Z,860.78
2019-01-05T08:06:39.839Z,860.80
2019-01-05T08:07:39.875Z,860.80
2019-01-05T08:08:39.835Z,860.77
2019-01-05T08:09:39.811Z,860.81
2019-01-05T08:10:39.801Z,860.74
2019-01-05T08:11:39.793Z,860.74
2019-01-05T08:12:39.779Z,860.74
2019-01-05T08:13:39.807Z,860.75
2019-01-05T08:14:39.777Z,860.75
2019-01-05T08:15:39.747Z,860.67
2019-01-05T08:16:39.740Z,860.72
2019-01-05T08:17:39.726Z,860.69
2019-01-05T08:18:39.717Z,860.70
2019-01-05T08:19:39.741Z,860.72
2019-01-05T08:20:39.696Z,860.71
2019-01-05T08:21:39.744Z,860.80
2019-01-05T08:22:39.673Z,860.74
2019-01-05T08:23:39.666Z,860.72
2019-01-05T08:24:39.650Z,860.80
2019-01-05T08:25:39.649Z,860.75
2019-01-05T08:26:39.640Z,860.74
2019-01-05T08:27:39.670Z,860.73
2019-01-05T08:28:39.611Z,860.73
2019-01-05T08:29:39.597Z,860.72
2019-01-05T08:30:39.590Z,860.69
2019-01-05T08:31:39.581Z,860.68
2019-01-05T08:32:39.572Z,860.73
2019-01-05T08:33:39.610Z,860.64
2019-01-05T08:34:39.547Z,860.67
2019-01-05T08:35:39.537Z,860.60
2019-01-05T08:36:39.532Z,860.59
2019-01-05T08:37:39.520Z,860.62
2019-01-05T08:38:39.518Z,860.67
2019-01-05T08:39:39.530Z,860.62
2019-01-05T08:40:39.501Z,860.64
2019-01-05T08:41:39.474Z,860.66
2019-01-05T08:42:39.505Z,860.59
2019-01-05T08:43:39.453Z,860.62
2019-01-05T08:44:39.443Z,860.64
2019-01-05T08:45:39.458Z,860.54
2019-01-05T08:46:39.422Z,860.55
2019-01-05T08:47:39.414Z,860.55
2019-01-05T08:48:39.441Z,860.58
2019-01-05T08:49:39.394Z,860.56
2019-01-05T08:50:39.386Z,860.52
2019-01-05T08:51:39.384Z,860.45
2019-01-05T08:52:39.365Z,860.46
2019-01-05T08:53:39.353Z,860.46
2019-01-05T08:54:39.375Z,860.48
2019-01-05T08:55:39.333Z,860.55
2019-01-05T08:56:39.319Z,860.54
2019-01-05T08:57:39.307Z,860.56
2019-01-05T08:58:39.313Z,860.59
2019-01-05T08:59:39.287Z,860.51
2019-01-05T09:00:39.307Z,860.49
2019-01-05T09:01:39.267Z,860.44
2019-01-05T09:02:39.309Z,860.46
2019-01-05T09:03:39.245Z,860.55
2019-01-05T09:04:39.249Z,860.58
2019-01-05T09:05:39.266Z,860.57
2019-01-05T09:06:39.216Z,860.58
2019-01-05T09:07:39.201Z,860.64
2019-01-05T09:08:39.190Z,860.62
2019-01-05T09:09:39.178Z,860.63
2019-01-05T09:10:39.189Z,860.63
2019-01-05T09:11:39.196Z,860.66
2019-01-05T09:12:39.147Z,860.70
2019-01-05T09:13:39.137Z,860.70
2019-01-05T09:14:39.131Z,860.72
2019-01-05T09:15:39.113Z,860.72
2019-01-05T09:16:39.144Z,860.74
2019-01-05T09:17:39.136Z,860.67
2019-01-05T09:18:39.093Z,860.68
2019-01-05T09:19:39.076Z,860.68
2019-01-05T09:20:39.065Z,860.69
2019-01-05T09:21:39.054Z,860.79
2019-01-05T09:22:39.049Z,860.83
2019-01-05T09:23:39.083Z,860.78
2019-01-05T09:24:39.018Z,860.75
2019-01-05T09:25:39.011Z,860.77
2019-01-05T09:26:39.000Z,860.81
2019-01-05T09:27:38.988Z,860.81
2019-01-05T09:28:39.714Z,860.82
2019-01-05T09:29:40.004Z,860.84
2019-01-05T09:30:38.961Z,860.83
2019-01-05T09:31:38.964Z,860.87
2019-01-05T09:32:38.942Z,860.81
2019-01-05T09:33:38.930Z,860.79
2019-01-05T09:34:38.964Z,860.76
2019-01-05T09:35:38.913Z,860.80
2019-01-05T09:36:38.896Z,860.83
2019-01-05T09:37:38.915Z,860.83
2019-01-05T09:38:38.873Z,860.77
2019-01-05T09:39:38.863Z,860.79
2019-01-05T09:40:38.896Z,860.75
2019-01-05T09:41:38.839Z,860.75
2019-01-05T09:42:38.833Z,860.66
2019-01-05T09:43:38.837Z,860.65
2019-01-05T09:44:38.851Z,860.64
2019-01-05T09:45:38.799Z,860.60
2019-01-05T09:46:38.791Z,860.62
2019-01-05T09:47:38.780Z,860.61
2019-01-05T09:48:38.768Z,860.59
2019-01-05T09:49:38.760Z,860.62
2019-01-05T09:50:38.785Z,860.61
2019-01-05T09:51:38.758Z,860.67
2019-01-05T09:52:38.726Z,860.56
2019-01-05T09:53:38.825Z,860.60
2019-01-05T09:54:38.711Z,860.61
2019-01-05T09:55:38.730Z,860.59
2019-01-05T09:56:38.721Z,860.57
2019-01-05T09:57:39.228Z,860.52
2019-01-05T09:58:38.678Z,860.49
2019-01-05T09:59:38.651Z,860.47
2019-01-05T10:00:38.645Z,860.49
2019-01-05T10:01:39.162Z,860.45
2019-01-05T10:02:38.678Z,860.52
2019-01-05T10:03:38.607Z,860.55
2019-01-05T10:04:38.685Z,860.52
2019-01-05T10:05:38.626Z,860.55
2019-01-05T10:06:38.578Z,860.63
2019-01-05T10:07:38.568Z,860.57
2019-01-05T10:08:38.590Z,860.53
2019-01-05T10:09:38.597Z,860.54
2019-01-05T10:10:38.539Z,860.54
2019-01-05T10:11:38.521Z,860.53
2019-01-05T10:12:38.522Z,860.52
2019-01-05T10:13:38.523Z,860.53
2019-01-05T10:14:38.490Z,860.56
2019-01-05T10:15:38.531Z,860.50
2019-01-05T10:16:38.479Z,860.50
2019-01-05T10:17:38.483Z,860.52
2019-01-05T10:18:38.449Z,860.54
2019-01-05T10:19:38.447Z,860.57
2019-01-05T10:20:38.453Z,860.63
2019-01-05T10:21:38.470Z,860.61
2019-01-05T10:22:38.426Z,860.59
2019-01-05T10:23:38.397Z,860.61
2019-01-05T10:24:38.381Z,860.65
2019-01-05T10:25:38.380Z,860.65
2019-01-05T10:26:38.380Z,860.57
2019-01-05T10:27:38.408Z,860.50
2019-01-05T10:28:38.345Z,860.47
2019-01-05T10:29:38.333Z,860.51
2019-01-05T10:30:38.320Z,860.56
2019-01-05T10:31:38.332Z,860.56
2019-01-05T10:32:38.300Z,860.61
2019-01-05T10:33:38.325Z,860.60
2019-01-05T10:34:38.285Z,860.64
2019-01-05T10:35:38.275Z,860.68
2019-01-05T10:36:38.284Z,860.62
2019-01-05T10:37:38.303Z,860.59
2019-01-05T10:38:38.273Z,860.66
2019-01-05T10:39:38.246Z,860.68
2019-01-05T10:40:38.240Z,860.66
2019-01-05T10:41:38.210Z,860.61
2019-01-05T10:42:38.207Z,860.61
2019-01-05T10:43:38.226Z,860.63
2019-01-05T10:44:38.175Z,860.66
2019-01-05T10:45:38.200Z,860.65
2019-01-05T10:46:38.159Z,860.64
2019-01-05T10:47:38.144Z,860.62
2019-01-05T10:48:38.641Z,860.60
2019-01-05T10:49:38.158Z,860.63
2019-01-05T10:50:38.133Z,860.63
2019-01-05T10:51:38.108Z,860.63
2019-01-05T10:52:38.091Z,860.59
2019-01-05T10:53:38.078Z,860.61
2019-01-05T10:54:38.072Z,860.64
2019-01-05T10:55:38.109Z,860.68
2019-01-05T10:56:38.048Z,860.62
2019-01-05T10:57:38.056Z,860.60
2019-01-05T10:58:38.024Z,860.56
2019-01-05T10:59:38.020Z,860.52
2019-01-05T11:00:38.011Z,860.58
2019-01-05T11:01:38.031Z,860.59
2019-01-05T11:02:37.984Z,860.51
2019-01-05T11:03:37.985Z,860.51
2019-01-05T11:04:37.960Z,860.47
2019-01-05T11:05:37.952Z,860.50
2019-01-05T11:06:37.963Z,860.50
2019-01-05T11:07:37.969Z,860.54
2019-01-05T11:08:37.935Z,860.50
2019-01-05T11:09:37.910Z,860.46
2019-01-05T11:10:37.970Z,860.42
2019-01-05T11:11:37.892Z,860.42
2019-01-05T11:12:37.876Z,860.41
2019-01-05T11:13:37.867Z,860.43
2019-01-05T11:14:38.024Z,860.46
2019-01-05T11:15:37.892Z,860.43
2019-01-05T11:16:37.871Z,860.40
2019-01-05T11:17:37.827Z,860.39
2019-01-05T11:18:37.830Z,860.41
2019-01-05T11:19:37.810Z,860.36
2019-01-05T11:20:37.800Z,860.41
2019-01-05T11:21:37.834Z,860.50
2019-01-05T11:22:37.770Z,860.43
2019-01-05T11:23:37.793Z,860.41
2019-01-05T11:24:37.757Z,860.36
2019-01-05T11:25:37.739Z,860.40
2019-01-05T11:26:38.875Z,860.41
2019-01-05T11:27:37.760Z,860.46
2019-01-05T11:28:37.720Z,860.45
2019-01-05T11:29:37.697Z,860.43
2019-01-05T11:30:37.687Z,860.40
2019-01-05T11:31:37.693Z,860.41
2019-01-05T11:32:37.696Z,860.40
2019-01-05T11:33:37.695Z,860.38
2019-01-05T11:34:37.662Z,860.32
2019-01-05T11:35:37.640Z,860.34
2019-01-05T11:36:37.623Z,860.36
2019-01-05T11:37:37.613Z,860.40
2019-01-05T11:38:37.627Z,860.40
2019-01-05T11:39:38.199Z,860.38
2019-01-05T11:40:37.585Z,860.38
2019-01-05T11:41:37.574Z,860.34
2019-01-05T11:42:37.561Z,860.34
2019-01-05T11:43:37.551Z,860.40
2019-01-05T11:44:37.551Z,860.40
2019-01-05T11:45:37.574Z,860.41
2019-01-05T11:46:37.544Z,860.37
2019-01-05T11:47:37.515Z,860.33
2019-01-05T11:48:37.508Z,860.34
2019-01-05T11:49:37.513Z,860.28
2019-01-05T11:50:37.477Z,860.24
2019-01-05T11:51:37.517Z,860.26
2019-01-05T11:52:37.479Z,860.24
2019-01-05T11:53:37.447Z,860.28
2019-01-05T11:54:37.443Z,860.25
2019-01-05T11:55:37.444Z,860.18
2019-01-05T11:56:37.418Z,860.16
2019-01-05T11:57:37.438Z,860.13
2019-01-05T11:58:37.392Z,860.13
2019-01-05T11:59:37.391Z,860.09
2019-01-05T12:00:37.472Z,860.08
2019-01-05T12:01:37.359Z,860.08
2019-01-05T12:02:37.353Z,860.02
2019-01-05T12:03:37.397Z,860.02
2019-01-05T12:04:37.327Z,860.05
2019-01-05T12:05:37.320Z,859.99
2019-01-05T12:06:37.342Z,860.05
2019-01-05T12:07:37.296Z,860.03
2019-01-05T12:08:37.336Z,860.00
2019-01-05T12:09:37.321Z,859.98
2019-01-05T12:10:37.267Z,859.94
2019-01-05T12:11:37.255Z,859.86
2019-01-05T12:12:37.261Z,859.85
2019-01-05T12:13:37.235Z,859.82
2019-01-05T12:14:37.245Z,859.85
2019-01-05T12:15:37.270Z,859.87
2019-01-05T12:16:40.756Z,859.81
2019-01-05T12:17:37.211Z,859.83
2019-01-05T12:18:37.189Z,859.80
2019-01-05T12:19:37.184Z,859.76
2019-01-05T12:20:37.179Z,859.81
2019-01-05T12:21:37.224Z,859.76
2019-01-05T12:22:37.134Z,859.73
2019-01-05T12:23:38.099Z,859.73
2019-01-05T12:24:37.117Z,859.70
2019-01-05T12:25:37.112Z,859.64
2019-01-05T12:26:37.093Z,859.68
2019-01-05T12:27:37.201Z,859.68
2019-01-05T12:28:37.072Z,859.73